Es ist keine erhöhte Aufmerksamkeit aufgrund des Wetters notwendig.   -   Es gibt keine Warnungen.

Nearby METAR Reports

 

ENZV - Stavanger
aktuell: 17/08/2017 15:20
Light rain, mostly cloudy
Light rain, mostly cloudy
 Wind von SSO
Wind: SSO 31 km/h
Temperatur: 15°C
Taupunkt: 12°C
Luftfeuchte: 82%
Luftdruck: 1008 hPa
Zusammenfassung: sehr leichter Niederschlag
Clouds: stark bewölkt
Visibility: 10 km
2017/08/17 13:20 ENZV 171320Z 15017KT 9999 -RA FEW021 SCT027 BKN055 15/12 Q1008 TEMPO RA
ENBR - Bergen
aktuell: 17/08/2017 15:20
Light rain, mostly cloudy
Light rain, mostly cloudy
 Wind von SO
Wind: SO 20 km/h
Temperatur: 15°C
Taupunkt: 13°C
Luftfeuchte: 88%
Luftdruck: 1007 hPa
Zusammenfassung: sehr leichter Niederschlag
Clouds: stark bewölkt
Visibility: 10 km
2017/08/17 13:20 ENBR 171320Z 14011KT 9999 -RA FEW020 BKN045 15/13 Q1007 TEMPO 16018G28KT RA RMK WIND 1200FT 14022G32KT
 
ENHD - Haugesund
aktuell: 17/08/2017 15:20
Light rain, mostly cloudy
Light rain, mostly cloudy
 Wind von SSO
Wind: SSO 30 km/h, Windböen: 50 km/h
Temperatur: 16°C
Taupunkt: 14°C
Luftfeuchte: 88%
Luftdruck: 1007 hPa
Zusammenfassung: sehr leichter Niederschlag
Clouds: stark bewölkt
Visibility: 5 km
2017/08/17 13:20 ENHD 171320Z 15016G27KT 5000 -RA SCT020 BKN030 16/14 Q1007 RERA
ENCN - Kristiansand
aktuell: 17/08/2017 15:20
Light rain, mostly cloudy
Light rain, mostly cloudy
 Wind von varies
Wind: varies 4 km/h
Temperatur: 16°C
Taupunkt: 13°C
Luftfeuchte: 83%
Luftdruck: 1013 hPa
Zusammenfassung: sehr leichter Niederschlag
Clouds: stark bewölkt
Visibility: 10 km
2017/08/17 13:20 ENCN 171320Z VRB02KT 9999 -RA FEW005 BKN018 16/13 Q1013
 
ENBO - Bodø
aktuell: 17/08/2017 15:20
teilweise bewölkt
teilweise bewölkt
 Wind von N
Wind: N 17 km/h
Temperatur: 17°C
Taupunkt: 9°C
Luftfeuchte: 59%
Luftdruck: 1015 hPa
Clouds: teilweise bewölkt
Visibility: 10 km
2017/08/17 13:20 ENBO 171320Z 01009KT 9999 FEW030 SCT200 17/09 Q1015 NOSIG
ENKR - Kirkenes
aktuell: 17/08/2017 15:20
stark bewölkt
stark bewölkt
 Wind von W
Wind: W 20 km/h
Temperatur: 16°C
Taupunkt: 9°C
Luftfeuchte: 63%
Luftdruck: 1011 hPa
Clouds: stark bewölkt
Visibility: 10 km
2017/08/17 13:20 ENKR 171320Z 28011KT 9999 FEW031 SCT053 BKN072 16/09 Q1011 RMK WIND 731FT /////KT
 
ENVA - Trondheim
aktuell: 17/08/2017 15:20
klar
klar
 Wind von SSO
Wind: SSO 20 km/h
Temperatur: 20°C
Taupunkt: 7°C
Luftfeuchte: 43%
Luftdruck: 1011 hPa
Zusammenfassung: klar
Visibility: greater than 10 km
2017/08/17 13:20 ENVA 171320Z 15011KT 130V190 CAVOK 20/07 Q1011 NOSIG RMK WIND 670FT 17019KT
ENGM - Oslo
aktuell: 17/08/2017 15:20
klar
klar
 Wind von SSO
Wind: SSO 19 km/h
Temperatur: 18°C
Taupunkt: 6°C
Luftfeuchte: 46%
Luftdruck: 1015 hPa
Zusammenfassung: klar
Visibility: greater than 10 km
2017/08/17 13:20 ENGM 171320Z 16010KT CAVOK 18/06 Q1015 NOSIG